Terminal Aerodrome Forecast
Issued by NWS Corpus Christi, TX

Home | Current Version | Previous Version | Text Only | Print | Product List | Glossary On
Versions: 1 2 3 4 5 6 7 8 9 10 11 12 13 14 15 16 17 18
000
FTUS44 KCRP 312324
TAFVCT
TAF
KVCT 312324Z 0100/0124 15007KT 6SM TS BR SCT025CB
      TEMPO 0100/0103 VRB15G25KT 1SM +TSRA BR BKN022CB
     FM010300 14005KT P6SM SCT020 BKN060
     FM011500 14012KT P6SM SCT025 BKN060=

USA.gov is the U.S. government's official web portal to all federal, state and local government web resources and services.